»·PEaware :: N6863 KBUR-KLAS

N6863 :: KBUR-KLAS

FLIGHT INFORMATION

Flight Status: Arrived
Operator: Privately registered:
United States
More flights under this callsign
Pilot: Shane T. (29357)
Aircraft: CESSNA 550 CITATION 2/S2/BRAVO
(C550)
More flights by this aircraft type
Origin: KBUR Bob Hope-Burbank
United States
Destination: KLAS McCarran Intl
United States
More flights between these airports :: More routes between these airports
Route: +SLAPP1 MISEN KEPEC6
File this flight plan on PilotEdge
Remarks:
Altitude:
(Current/Filed)
31,000ft
Speed:
(Current/Filed)
380kts
Departed: 20-May-20 03:25 PM
Arrived: 20-May-20 05:31 PM
Distance/Time
Traveled:
193nm/2:05
Distance/Time
To Go:
Arrived

Flight Plot

Page will automatically refresh every two minutes.


Map Options




Map Legend


Flown Route
Filed Route
Departure Airport
Arrival Airport
Navaid (VOR, NDB)
Fix

Horizontal Profiles

Position Reports

Time Latitude Longitude Heading Altitude Ground
Speed
20-May-20 14:48 34.199878 -118.363826 358 782ft 0kts
20-May-20 14:48 34.199878 -118.363826 358 782ft 0kts
20-May-20 14:49 34.199878 -118.363826 358 782ft 0kts
20-May-20 14:51 34.199878 -118.363826 358 782ft 0kts
20-May-20 14:51 34.199878 -118.363826 358 782ft 0kts
20-May-20 14:52 34.199878 -118.363826 358 782ft 0kts
20-May-20 14:53 34.199878 -118.363826 358 782ft 0kts
20-May-20 14:54 34.199878 -118.363826 358 782ft 0kts
20-May-20 14:55 34.199878 -118.363826 358 782ft 0kts
20-May-20 14:56 34.199878 -118.363826 358 782ft 0kts
20-May-20 14:57 34.199878 -118.363826 358 782ft 0kts
20-May-20 14:58 34.199878 -118.363826 358 782ft 0kts
20-May-20 14:59 34.199878 -118.363826 358 782ft 0kts
20-May-20 15:00 34.199878 -118.363826 358 782ft 0kts
20-May-20 15:01 34.199878 -118.363826 358 782ft 0kts
20-May-20 15:02 34.199878 -118.363826 358 782ft 0kts
20-May-20 15:03 34.199878 -118.363826 358 782ft 0kts
20-May-20 15:04 34.199878 -118.363826 358 782ft 0kts
20-May-20 15:05 34.199878 -118.363826 358 782ft 0kts
20-May-20 15:06 34.199878 -118.363826 358 782ft 0kts
20-May-20 15:07 34.199878 -118.363826 358 782ft 0kts
20-May-20 15:08 34.199878 -118.363826 358 782ft 0kts
20-May-20 15:09 34.200057 -118.364252 272 782ft 3kts
20-May-20 15:10 34.200029 -118.364350 225 782ft 0kts
20-May-20 15:11 34.200029 -118.364350 225 782ft 0kts
20-May-20 15:12 34.199863 -118.364499 192 782ft 0kts
20-May-20 15:13 34.199858 -118.364500 192 782ft 0kts
20-May-20 15:14 34.199858 -118.364500 192 782ft 0kts
20-May-20 15:15 34.199858 -118.364500 192 782ft 0kts
20-May-20 15:16 34.199800 -118.364510 184 782ft 1kts
20-May-20 15:17 34.198931 -118.362192 83 782ft 11kts
20-May-20 15:18 34.198864 -118.358358 88 782ft 11kts
20-May-20 15:19 34.201570 -118.358617 349 782ft 15kts
20-May-20 15:20 34.206246 -118.359909 347 782ft 18kts
20-May-20 15:21 34.210126 -118.360967 347 782ft 12kts
20-May-20 15:22 34.211461 -118.361229 26 782ft 0kts
20-May-20 15:23 34.211518 -118.361186 33 782ft 0kts
20-May-20 15:24 34.205393 -118.358537 167 854ft 122kts
20-May-20 15:25 34.163263 -118.385715 221 3549ft 237kts
20-May-20 15:26 34.110336 -118.443721 222 4123ft 221kts
20-May-20 15:27 34.118282 -118.484148 352 4386ft 160kts
20-May-20 15:28 34.171060 -118.495478 349 5990ft 210kts
20-May-20 15:29 34.231102 -118.508603 350 9252ft 222kts
20-May-20 15:30 34.290803 -118.470984 31 10989ft 281kts
20-May-20 15:31 34.357057 -118.417206 30 10999ft 278kts
20-May-20 15:32 34.423799 -118.363894 30 10999ft 294kts
20-May-20 15:33 34.490840 -118.304662 37 11004ft 301kts
20-May-20 15:34 34.552796 -118.242872 36 12043ft 278kts
20-May-20 15:35 34.614147 -118.181505 34 14478ft 294kts
20-May-20 15:36 34.668722 -118.105543 69 16737ft 324kts
20-May-20 15:37 34.687970 -117.994955 75 18653ft 341kts
20-May-20 15:38 34.697548 -117.877395 82 20358ft 357kts
20-May-20 15:39 34.704879 -117.755285 82 21892ft 368kts
20-May-20 15:40 34.709906 -117.629176 84 23247ft 379kts
20-May-20 15:41 34.717499 -117.500548 72 24491ft 383kts
20-May-20 15:42 34.748896 -117.377935 66 25956ft 379kts
20-May-20 15:43 34.781671 -117.255030 67 26898ft 387kts
20-May-20 15:44 34.814961 -117.129023 67 27763ft 395kts
20-May-20 15:45 34.848303 -117.001881 66 29043ft 385kts
20-May-20 15:46 34.880338 -116.879406 66 30351ft 381kts
20-May-20 15:47 34.912750 -116.755086 66 31059ft 393kts
20-May-20 15:48 34.971082 -116.636836 48 29556ft 438kts
20-May-20 15:49 35.042249 -116.510926 49 27176ft 438kts
20-May-20 15:50 35.105663 -116.400994 41 24176ft 357kts
20-May-20 16:03 34.199878 -118.363826 358 782ft 0kts
20-May-20 16:04 34.199878 -118.363826 358 782ft 0kts
20-May-20 16:05 34.199878 -118.363826 358 782ft 0kts
20-May-20 16:06 34.199878 -118.363826 358 782ft 0kts
20-May-20 16:07 34.199878 -118.363826 358 782ft 0kts
20-May-20 16:08 34.199878 -118.363826 358 782ft 0kts
20-May-20 16:09 34.199878 -118.363826 358 782ft 0kts
20-May-20 16:10 34.199878 -118.363826 358 782ft 0kts
20-May-20 16:11 34.199878 -118.363826 358 782ft 0kts
20-May-20 16:12 34.199968 -118.364421 228 782ft 6kts
20-May-20 16:13 34.199200 -118.364633 228 782ft 5kts
20-May-20 16:14 34.199109 -118.367346 271 782ft 8kts
20-May-20 16:15 34.198787 -118.368958 191 782ft 1kts
20-May-20 16:16 34.197897 -118.368464 90 782ft 12kts
20-May-20 16:28 34.200055 -118.364213 274 782ft 3kts
20-May-20 16:29 34.199095 -118.366341 269 782ft 10kts
20-May-20 16:30 34.199096 -118.367620 275 782ft 1kts
20-May-20 16:31 34.199022 -118.368742 215 782ft 2kts
20-May-20 16:32 34.197904 -118.368737 87 782ft 5kts
20-May-20 16:33 34.191401 -118.334427 149 2182ft 174kts
20-May-20 16:34 34.141496 -118.369736 225 3987ft 242kts
20-May-20 16:35 34.147615 -118.436988 323 6162ft 227kts
20-May-20 16:36 34.196515 -118.480046 324 9787ft 222kts
20-May-20 16:37 34.258899 -118.521168 3 11175ft 286kts
20-May-20 16:38 34.325741 -118.467536 35 13338ft 301kts
20-May-20 16:39 34.391835 -118.402321 34 15125ft 311kts
20-May-20 16:39 34.447750 -118.347210 33 16968ft 300kts
20-May-20 16:41 34.522554 -118.272861 32 19160ft 306kts
20-May-20 16:42 34.588942 -118.206339 32 20711ft 314kts
20-May-20 16:42 34.645606 -118.149166 35 21900ft 323kts
20-May-20 16:43 34.679956 -118.042972 73 23189ft 355kts
20-May-20 16:45 34.695831 -117.901772 82 24513ft 369kts
20-May-20 16:45 34.702154 -117.796648 82 25046ft 385kts
20-May-20 16:46 34.708419 -117.661768 84 25049ft 409kts
20-May-20 16:48 34.717341 -117.498779 72 25048ft 416kts
20-May-20 16:48 34.746007 -117.386797 66 25051ft 417kts
20-May-20 16:49 34.782015 -117.252343 67 25041ft 420kts
20-May-20 16:50 34.817771 -117.116931 68 25043ft 420kts
20-May-20 16:51 34.853148 -116.982185 68 25049ft 421kts
20-May-20 16:52 34.888682 -116.846149 68 25046ft 422kts
20-May-20 16:53 34.928936 -116.712274 53 25046ft 415kts
20-May-20 16:54 34.993931 -116.595888 49 24666ft 419kts
20-May-20 16:55 35.059030 -116.480402 49 24091ft 409kts
20-May-20 16:56 35.112224 -116.392572 41 24052ft 394kts
20-May-20 16:57 35.174992 -116.312612 38 24043ft 388kts
20-May-20 16:58 35.248729 -116.220046 38 24043ft 385kts
20-May-20 16:59 35.323338 -116.126236 38 23852ft 389kts
20-May-20 17:00 35.395151 -116.035497 38 21991ft 362kts
20-May-20 17:01 35.463817 -115.948716 39 19990ft 349kts
20-May-20 17:02 35.530872 -115.863659 40 17994ft 345kts
20-May-20 17:03 35.596755 -115.779899 41 15998ft 339kts
20-May-20 17:04 35.661069 -115.697941 43 13436ft 319kts
20-May-20 17:05 35.721615 -115.620751 44 13048ft 323kts
20-May-20 17:06 35.800571 -115.573113 359 13046ft 318kts
20-May-20 17:07 35.886492 -115.568122 359 13045ft 322kts
20-May-20 17:08 35.967306 -115.538904 38 12791ft 303kts
20-May-20 17:09 36.006666 -115.452880 68 11090ft 285kts
20-May-20 17:10 36.021476 -115.365177 73 10834ft 251kts
20-May-20 17:11 36.034749 -115.279760 84 9557ft 262kts
20-May-20 17:12 36.027865 -115.192436 97 9025ft 242kts
20-May-20 17:13 36.019179 -115.113053 97 8075ft 226kts
20-May-20 17:14 36.010654 -115.031851 95 8027ft 251kts
20-May-20 17:15 36.003910 -114.940800 95 8023ft 238kts
20-May-20 17:16 35.997728 -114.862041 95 8029ft 237kts
20-May-20 17:17 35.991721 -114.778935 93 8025ft 234kts
20-May-20 17:18 35.986617 -114.699934 94 7979ft 220kts
20-May-20 17:19 35.990240 -114.627313 56 7978ft 201kts
20-May-20 17:20 36.035863 -114.603401 359 7983ft 182kts
20-May-20 17:21 36.066810 -114.638462 275 7985ft 195kts
20-May-20 17:22 36.071834 -114.707902 278 8021ft 206kts
20-May-20 17:23 36.075595 -114.779791 264 7654ft 215kts
20-May-20 17:24 36.073486 -114.852974 269 6495ft 213kts
20-May-20 17:25 36.073535 -114.924219 270 5350ft 194kts
20-May-20 17:26 36.073606 -114.986368 270 4319ft 171kts
20-May-20 17:27 36.073655 -115.040023 270 3455ft 149kts
20-May-20 17:28 36.073562 -115.084509 272 2734ft 114kts
20-May-20 17:29 36.073636 -115.125145 273 2094ft 114kts
20-May-20 17:30 36.074600 -115.145638 299 2102ft 21kts
20-May-20 17:31 36.074949 -115.146327 316 2104ft 10kts
20-May-20 17:32 36.077872 -115.148539 276 2108ft 8kts
20-May-20 17:33 36.078038 -115.153198 271 2123ft 26kts
20-May-20 17:34 36.078032 -115.161253 270 2152ft 22kts
20-May-20 17:35 36.078009 -115.168396 270 2175ft 18kts
20-May-20 17:36 36.080262 -115.169967 34 2173ft 15kts
20-May-20 17:37 36.080750 -115.170731 260 2173ft 0kts
20-May-20 17:38 36.080750 -115.170730 260 2173ft 0kts
20-May-20 17:39 36.080750 -115.170730 260 2173ft 0kts

Navigation Log

Ident Type
Flight plan parsing failed, navigation log unavailable